createdAt,value
2018-01-19T00:00:16.136Z,3.20
2018-01-19T00:02:43.618Z,3.03
2018-01-19T00:05:11.148Z,3.20
2018-01-19T00:07:38.692Z,2.90
2018-01-19T00:10:06.227Z,3.40
2018-01-19T00:12:33.664Z,3.30
2018-01-19T00:15:01.168Z,3.00
2018-01-19T00:17:28.676Z,2.97
2018-01-19T00:19:56.238Z,3.07
2018-01-19T00:22:23.737Z,3.47
2018-01-19T00:24:51.206Z,3.40
2018-01-19T00:27:18.686Z,3.40
2018-01-19T00:29:47.058Z,3.30
2018-01-19T00:32:14.577Z,3.93
2018-01-19T00:34:42.037Z,3.50
2018-01-19T00:37:09.953Z,3.20
2018-01-19T00:39:37.506Z,3.60
2018-01-19T00:42:04.958Z,3.37
2018-01-19T00:44:32.429Z,3.40
2018-01-19T00:46:59.925Z,3.20
2018-01-19T00:49:27.441Z,3.57
2018-01-19T00:51:54.893Z,3.40
2018-01-19T00:54:22.413Z,3.33
2018-01-19T00:56:49.958Z,3.47
2018-01-19T00:59:22.364Z,3.10
2018-01-19T01:01:49.880Z,3.43
2018-01-19T01:04:17.341Z,3.73
2018-01-19T01:06:44.796Z,3.50
2018-01-19T01:09:12.328Z,4.07
2018-01-19T01:11:39.770Z,3.50
2018-01-19T01:14:07.269Z,3.93
2018-01-19T01:16:34.722Z,3.80
2018-01-19T01:19:02.245Z,3.80
2018-01-19T01:21:29.716Z,3.70
2018-01-19T01:23:57.189Z,4.03
2018-01-19T01:26:24.712Z,3.83
2018-01-19T01:28:52.194Z,3.87
2018-01-19T01:31:19.675Z,3.60
2018-01-19T01:33:47.104Z,3.60
2018-01-19T01:36:14.633Z,3.93
2018-01-19T01:38:42.126Z,3.60
2018-01-19T01:41:09.631Z,3.40
2018-01-19T01:43:37.093Z,3.70
2018-01-19T01:46:04.569Z,3.60
2018-01-19T01:48:32.044Z,3.70
2018-01-19T01:50:59.501Z,3.87
2018-01-19T01:53:27.036Z,3.73
2018-01-19T01:55:54.496Z,4.20
2018-01-19T01:58:21.969Z,3.93
2018-01-19T02:00:50.300Z,3.77
2018-01-19T02:03:18.047Z,4.00
2018-01-19T02:05:45.518Z,4.07
2018-01-19T02:08:13.537Z,3.77
2018-01-19T02:10:41.040Z,3.93
2018-01-19T02:13:08.492Z,3.73
2018-01-19T02:15:35.993Z,3.93
2018-01-19T02:18:03.501Z,4.03
2018-01-19T02:20:31.577Z,3.83
2018-01-19T02:22:59.045Z,4.20
2018-01-19T02:25:26.593Z,3.80
2018-01-19T02:27:54.054Z,3.73
2018-01-19T02:30:21.604Z,3.93
2018-01-19T02:32:49.104Z,3.70
2018-01-19T02:35:16.605Z,4.37
2018-01-19T02:37:44.076Z,3.67
2018-01-19T02:40:11.571Z,3.93
2018-01-19T02:42:39.059Z,4.07
2018-01-19T02:45:06.588Z,3.60
2018-01-19T02:47:34.127Z,3.60
2018-01-19T02:50:01.702Z,3.43
2018-01-19T02:52:29.196Z,3.03
2018-01-19T02:54:57.479Z,3.00
2018-01-19T02:57:24.973Z,3.50
2018-01-19T02:59:52.701Z,3.57
2018-01-19T03:02:20.147Z,4.00
2018-01-19T03:04:47.578Z,3.70
2018-01-19T03:07:15.070Z,3.13
2018-01-19T03:09:42.537Z,3.60
2018-01-19T03:12:10.064Z,3.50
2018-01-19T03:14:37.545Z,3.70
2018-01-19T03:17:05.064Z,3.80
2018-01-19T03:19:32.512Z,3.40
2018-01-19T03:22:00.331Z,3.53
2018-01-19T03:24:27.794Z,3.03
2018-01-19T03:26:56.118Z,3.60
2018-01-19T03:29:23.578Z,3.53
2018-01-19T03:31:51.086Z,3.43
2018-01-19T03:34:18.550Z,3.30
2018-01-19T03:36:46.004Z,3.40
2018-01-19T03:39:13.482Z,3.53
2018-01-19T03:41:40.982Z,3.97
2018-01-19T03:44:08.477Z,3.43
2018-01-19T03:46:35.954Z,3.30
2018-01-19T03:49:08.410Z,3.10
2018-01-19T03:51:35.880Z,3.37
2018-01-19T03:54:03.357Z,3.63
2018-01-19T03:56:30.872Z,4.20
2018-01-19T03:58:58.346Z,3.43
2018-01-19T04:01:25.872Z,3.27
2018-01-19T04:03:53.322Z,3.50
2018-01-19T04:06:20.832Z,3.60
2018-01-19T04:08:49.144Z,4.00
2018-01-19T04:11:16.601Z,3.53
2018-01-19T04:13:44.122Z,3.60
2018-01-19T04:16:11.572Z,4.00
2018-01-19T04:18:39.019Z,3.80
2018-01-19T04:21:06.564Z,4.07
2018-01-19T04:23:33.995Z,3.77
2018-01-19T04:26:01.477Z,3.53
2018-01-19T04:28:28.960Z,4.00
2018-01-19T04:30:56.414Z,3.60
2018-01-19T04:33:23.861Z,3.90
2018-01-19T04:35:51.446Z,3.43
2018-01-19T04:38:18.930Z,3.70
2018-01-19T04:40:46.453Z,3.90
2018-01-19T04:43:13.911Z,3.53
2018-01-19T04:45:41.398Z,3.97
2018-01-19T04:48:13.853Z,3.90
2018-01-19T04:50:41.362Z,3.63
2018-01-19T04:53:08.847Z,3.83
2018-01-19T04:55:36.292Z,4.20
2018-01-19T04:58:03.803Z,4.20
2018-01-19T05:00:31.287Z,3.87
2018-01-19T05:02:58.733Z,5.30
2018-01-19T05:05:26.266Z,4.87
2018-01-19T05:07:53.707Z,4.77
2018-01-19T05:10:21.264Z,4.37
2018-01-19T05:12:48.700Z,3.60
2018-01-19T05:15:16.244Z,4.43
2018-01-19T05:17:43.708Z,4.20
2018-01-19T05:20:11.192Z,4.13
2018-01-19T05:22:39.891Z,4.87
2018-01-19T05:25:07.355Z,4.50
2018-01-19T05:27:34.902Z,4.07
2018-01-19T05:30:02.418Z,4.27
2018-01-19T05:32:29.920Z,3.70
2018-01-19T05:34:57.357Z,4.20
2018-01-19T05:37:24.866Z,5.37
2018-01-19T05:39:52.340Z,6.50
2018-01-19T05:42:19.809Z,5.97
2018-01-19T05:44:47.295Z,5.43
2018-01-19T05:47:14.780Z,3.93
2018-01-19T05:49:42.296Z,4.00
2018-01-19T05:52:09.774Z,4.10
2018-01-19T05:54:37.287Z,3.97
2018-01-19T05:57:04.788Z,4.30
2018-01-19T05:59:32.257Z,3.50
2018-01-19T06:01:59.758Z,4.00
2018-01-19T06:04:27.248Z,4.10
2018-01-19T06:06:54.801Z,3.93
2018-01-19T06:09:22.241Z,4.40
2018-01-19T06:11:49.714Z,4.23
2018-01-19T06:14:17.191Z,3.67
2018-01-19T06:16:44.729Z,4.43
2018-01-19T06:19:17.223Z,3.97
2018-01-19T06:21:44.714Z,4.30
2018-01-19T06:24:12.172Z,4.40
2018-01-19T06:26:39.644Z,4.40
2018-01-19T06:29:07.187Z,3.97
2018-01-19T06:31:34.735Z,4.60
2018-01-19T06:34:02.233Z,3.53
2018-01-19T06:36:29.791Z,4.87
2018-01-19T06:38:57.265Z,4.17
2018-01-19T06:41:24.766Z,5.00
2018-01-19T06:43:52.281Z,4.20
2018-01-19T06:46:19.781Z,4.70
2018-01-19T06:48:47.223Z,4.37
2018-01-19T06:51:14.788Z,4.43
2018-01-19T06:53:42.234Z,4.40
2018-01-19T06:56:09.750Z,4.77
2018-01-19T06:58:37.233Z,5.17
2018-01-19T07:01:04.758Z,5.10
2018-01-19T07:03:32.207Z,4.33
2018-01-19T07:05:59.707Z,4.53
2018-01-19T07:08:27.217Z,4.67
2018-01-19T07:10:54.759Z,5.00
2018-01-19T07:13:22.233Z,5.10
2018-01-19T07:15:49.735Z,5.37
2018-01-19T07:18:17.611Z,5.40
2018-01-19T07:20:45.142Z,6.17
2018-01-19T07:23:12.684Z,6.30
2018-01-19T07:25:40.289Z,6.83
2018-01-19T07:28:07.811Z,5.70
2018-01-19T07:30:35.400Z,5.17
2018-01-19T07:33:02.907Z,5.20
2018-01-19T07:35:30.488Z,5.47
2018-01-19T07:37:58.012Z,4.57
2018-01-19T07:40:25.620Z,5.03
2018-01-19T07:42:53.221Z,4.43
2018-01-19T07:45:20.712Z,5.50
2018-01-19T07:47:48.343Z,5.40
2018-01-19T07:50:15.887Z,6.00
2018-01-19T07:52:43.473Z,6.20
2018-01-19T07:55:11.013Z,6.37
2018-01-19T07:57:38.567Z,5.33
2018-01-19T08:00:06.262Z,4.90
2018-01-19T08:02:33.780Z,4.70
2018-01-19T08:05:01.427Z,5.40
2018-01-19T08:07:29.759Z,5.80
2018-01-19T08:09:57.344Z,5.00
2018-01-19T08:12:25.035Z,5.00
2018-01-19T08:14:52.654Z,5.60
2018-01-19T08:17:20.156Z,5.30
2018-01-19T08:19:47.616Z,5.17
2018-01-19T08:22:15.095Z,5.30
2018-01-19T08:24:42.556Z,6.30
2018-01-19T08:27:10.054Z,5.30
2018-01-19T08:29:51.875Z,5.30
2018-01-19T08:32:19.419Z,4.63
2018-01-19T08:34:46.893Z,5.23
2018-01-19T08:37:14.370Z,5.43
2018-01-19T08:39:41.892Z,5.10
2018-01-19T08:42:09.489Z,4.80
2018-01-19T08:44:36.935Z,4.83
2018-01-19T08:47:04.439Z,4.97
2018-01-19T08:49:31.902Z,4.67
2018-01-19T08:51:59.420Z,5.10
2018-01-19T08:54:26.861Z,4.67
2018-01-19T08:56:54.339Z,5.50
2018-01-19T08:59:21.816Z,5.30
2018-01-19T09:01:49.335Z,4.80
2018-01-19T09:04:16.815Z,5.00
2018-01-19T09:06:44.338Z,5.43
2018-01-19T09:09:11.826Z,5.27
2018-01-19T09:11:39.334Z,5.47
2018-01-19T09:14:06.792Z,5.63
2018-01-19T09:16:34.289Z,5.37
2018-01-19T09:19:01.751Z,5.80
2018-01-19T09:21:29.300Z,5.00
2018-01-19T09:23:56.794Z,5.77
2018-01-19T09:26:24.310Z,5.40
2018-01-19T09:28:51.841Z,5.50
2018-01-19T09:31:19.292Z,5.40
2018-01-19T09:33:46.795Z,5.60
2018-01-19T09:36:14.434Z,5.60
2018-01-19T09:38:41.996Z,6.00
2018-01-19T09:41:09.529Z,5.63
2018-01-19T09:43:37.384Z,5.17
2018-01-19T09:46:05.761Z,4.57
2018-01-19T09:48:33.257Z,5.20
2018-01-19T09:51:00.789Z,5.97
2018-01-19T09:53:28.279Z,5.30
2018-01-19T09:55:55.788Z,5.13
2018-01-19T09:58:23.524Z,5.20
2018-01-19T10:00:50.988Z,4.83
2018-01-19T10:03:18.427Z,5.13
2018-01-19T10:05:45.882Z,5.13
2018-01-19T10:08:13.382Z,5.23
2018-01-19T10:10:40.887Z,5.60
2018-01-19T10:13:08.399Z,5.00
2018-01-19T10:15:35.872Z,4.53
2018-01-19T10:18:03.427Z,4.93
2018-01-19T10:20:30.918Z,4.80
2018-01-19T10:22:58.399Z,4.77
2018-01-19T10:25:25.889Z,4.77
2018-01-19T10:27:53.356Z,5.13
2018-01-19T10:30:20.891Z,4.83
2018-01-19T10:32:48.384Z,5.00
2018-01-19T10:35:15.855Z,5.37
2018-01-19T10:37:43.318Z,5.77
2018-01-19T10:40:10.832Z,5.03
2018-01-19T10:42:38.340Z,5.17
2018-01-19T10:45:05.780Z,4.93
2018-01-19T10:47:33.287Z,5.40
2018-01-19T10:50:00.793Z,5.00
2018-01-19T10:52:28.315Z,5.30
2018-01-19T10:54:55.780Z,5.00
2018-01-19T10:57:23.289Z,5.40
2018-01-19T10:59:50.728Z,5.20
2018-01-19T11:02:18.245Z,5.40
2018-01-19T11:04:45.861Z,5.57
2018-01-19T11:07:13.357Z,5.20
2018-01-19T11:09:40.888Z,5.03
2018-01-19T11:12:08.414Z,5.50
2018-01-19T11:14:35.899Z,6.10
2018-01-19T11:17:03.360Z,5.20
2018-01-19T11:19:30.852Z,6.00
2018-01-19T11:21:58.362Z,6.07
2018-01-19T11:24:25.826Z,5.03
2018-01-19T11:26:53.319Z,5.33
2018-01-19T11:29:25.849Z,4.80
2018-01-19T11:31:53.358Z,5.67
2018-01-19T11:34:20.815Z,5.07
2018-01-19T11:36:48.293Z,6.30
2018-01-19T11:39:20.860Z,5.47
2018-01-19T11:41:48.351Z,4.87
2018-01-19T11:44:15.856Z,5.33
2018-01-19T11:46:43.408Z,5.20
2018-01-19T11:49:10.952Z,5.47
2018-01-19T11:51:38.642Z,5.13
2018-01-19T11:54:06.250Z,5.43
2018-01-19T11:56:33.814Z,5.27
2018-01-19T11:59:01.460Z,5.07
2018-01-19T12:01:29.142Z,4.73
2018-01-19T12:03:56.606Z,5.27
2018-01-19T12:06:24.259Z,5.60
2018-01-19T12:08:51.809Z,5.73
2018-01-19T12:11:19.273Z,5.37
2018-01-19T12:13:46.792Z,6.00
2018-01-19T12:16:14.313Z,6.00
2018-01-19T12:18:41.794Z,5.63
2018-01-19T12:21:09.276Z,5.73
2018-01-19T12:23:36.751Z,6.20
2018-01-19T12:26:04.225Z,6.23
2018-01-19T12:28:31.707Z,6.93
2018-01-19T12:30:59.258Z,7.03
2018-01-19T12:33:26.815Z,6.67
2018-01-19T12:35:54.360Z,6.87
2018-01-19T12:38:22.358Z,7.13
2018-01-19T12:40:50.352Z,6.50
2018-01-19T12:43:17.850Z,6.40
2018-01-19T12:45:45.437Z,7.23
2018-01-19T12:48:12.917Z,6.43
2018-01-19T12:50:40.546Z,6.97
2018-01-19T12:53:08.505Z,6.37
2018-01-19T12:55:36.144Z,6.37
2018-01-19T12:58:04.569Z,6.20
2018-01-19T13:00:32.256Z,6.50
2018-01-19T13:02:59.769Z,6.30
2018-01-19T13:05:27.507Z,6.60
2018-01-19T13:07:55.073Z,6.80
2018-01-19T13:10:22.532Z,6.90
2018-01-19T13:12:50.096Z,6.33
2018-01-19T13:15:17.657Z,6.93
2018-01-19T13:17:45.178Z,7.10
2018-01-19T13:20:12.740Z,7.00
2018-01-19T13:22:40.235Z,6.80
2018-01-19T13:25:07.824Z,7.10
2018-01-19T13:27:35.345Z,6.40
2018-01-19T13:30:02.947Z,6.10
2018-01-19T13:32:30.466Z,5.93
2018-01-19T13:34:57.928Z,5.67
2018-01-19T13:37:25.538Z,6.23
2018-01-19T13:39:53.099Z,5.77
2018-01-19T13:42:20.585Z,5.03
2018-01-19T13:44:48.126Z,5.73
2018-01-19T13:47:15.838Z,5.93
2018-01-19T13:49:48.400Z,5.87
2018-01-19T13:52:15.920Z,5.90
2018-01-19T13:54:43.452Z,5.63
2018-01-19T13:57:10.919Z,5.23
2018-01-19T13:59:43.503Z,4.80
2018-01-19T14:02:11.142Z,4.43
2018-01-19T14:04:38.655Z,4.83
2018-01-19T14:07:06.352Z,4.63
2018-01-19T14:09:34.029Z,4.73
2018-01-19T14:12:01.581Z,4.80
2018-01-19T14:14:29.081Z,5.00
2018-01-19T14:16:56.557Z,4.53
2018-01-19T14:19:24.095Z,4.40
2018-01-19T14:21:51.620Z,4.93
2018-01-19T14:24:19.078Z,4.80
2018-01-19T14:26:46.651Z,4.20
2018-01-19T14:29:14.139Z,4.67
2018-01-19T14:31:41.619Z,5.00
2018-01-19T14:34:09.388Z,4.67
2018-01-19T14:36:36.909Z,4.80
2018-01-19T14:39:04.482Z,4.80
2018-01-19T14:41:31.976Z,4.67
2018-01-19T14:43:59.494Z,4.70
2018-01-19T14:46:27.059Z,4.77
2018-01-19T14:48:54.535Z,5.07
2018-01-19T14:51:22.814Z,4.87
2018-01-19T14:53:50.348Z,5.20
2018-01-19T14:56:17.839Z,5.43
2018-01-19T14:58:45.475Z,5.57
2018-01-19T15:01:12.919Z,5.60
2018-01-19T15:03:40.466Z,5.70
2018-01-19T15:06:08.001Z,6.43
2018-01-19T15:08:35.520Z,5.20
2018-01-19T15:11:03.106Z,6.13
2018-01-19T15:13:30.567Z,5.90
2018-01-19T15:15:58.082Z,5.83
2018-01-19T15:18:25.594Z,6.10
2018-01-19T15:20:53.113Z,5.87
2018-01-19T15:23:20.591Z,6.13
2018-01-19T15:25:48.157Z,6.10
2018-01-19T15:28:15.982Z,7.03
2018-01-19T15:30:43.575Z,5.33
2018-01-19T15:33:11.064Z,5.57
2018-01-19T15:35:38.689Z,5.73
2018-01-19T15:38:06.277Z,6.03
2018-01-19T15:40:33.799Z,6.30
2018-01-19T15:43:01.457Z,6.20
2018-01-19T15:45:29.063Z,5.87
2018-01-19T15:47:56.645Z,5.83
2018-01-19T15:50:24.383Z,6.60
2018-01-19T15:52:51.932Z,5.93
2018-01-19T15:55:19.469Z,6.40
2018-01-19T15:57:46.948Z,5.93
2018-01-19T16:00:14.828Z,6.43
2018-01-19T16:02:42.318Z,6.60
2018-01-19T16:05:09.874Z,6.53
2018-01-19T16:07:37.455Z,6.97
2018-01-19T16:10:04.990Z,6.70
2018-01-19T16:12:32.516Z,6.70
2018-01-19T16:15:00.133Z,6.93
2018-01-19T16:17:27.738Z,7.33
2018-01-19T16:19:55.303Z,7.60
2018-01-19T16:22:22.842Z,7.13
2018-01-19T16:24:50.874Z,7.53
2018-01-19T16:27:18.534Z,6.70
2018-01-19T16:29:46.141Z,7.77
2018-01-19T16:32:13.660Z,8.57
2018-01-19T16:34:41.280Z,7.53
2018-01-19T16:37:08.858Z,8.57
2018-01-19T16:39:36.387Z,7.67
2018-01-19T16:42:04.006Z,6.83
2018-01-19T16:44:32.758Z,7.70
2018-01-19T16:47:00.400Z,7.53
2018-01-19T16:49:27.927Z,7.70
2018-01-19T16:51:55.517Z,8.30
2018-01-19T16:54:23.079Z,8.43
2018-01-19T16:56:50.658Z,7.63
2018-01-19T16:59:18.126Z,9.80
2018-01-19T17:01:45.727Z,8.50
2018-01-19T17:04:13.272Z,8.37
2018-01-19T17:06:40.854Z,8.50
2018-01-19T17:09:08.474Z,8.40
2018-01-19T17:11:36.099Z,8.67
2018-01-19T17:14:03.630Z,9.20
2018-01-19T17:16:31.206Z,9.73
2018-01-19T17:18:58.722Z,9.20
2018-01-19T17:21:26.290Z,9.37
2018-01-19T17:23:53.853Z,9.60
2018-01-19T17:26:21.474Z,9.40
2018-01-19T17:28:49.059Z,9.23
2018-01-19T17:31:16.614Z,8.93
2018-01-19T17:33:44.166Z,9.03
2018-01-19T17:36:11.660Z,8.90
2018-01-19T17:38:39.286Z,9.10
2018-01-19T17:41:06.783Z,7.80
2018-01-19T17:43:34.418Z,8.20
2018-01-19T17:46:02.137Z,8.83
2018-01-19T17:48:29.752Z,8.20
2018-01-19T17:50:57.226Z,8.53
2018-01-19T17:53:24.777Z,8.20
2018-01-19T17:55:52.359Z,7.80
2018-01-19T17:58:19.897Z,8.30
2018-01-19T18:00:47.596Z,7.43
2018-01-19T18:03:17.488Z,7.90
2018-01-19T18:05:45.176Z,7.80
2018-01-19T18:08:12.752Z,8.60
2018-01-19T18:10:40.351Z,8.10
2018-01-19T18:13:07.904Z,8.97
2018-01-19T18:15:35.483Z,8.40
2018-01-19T18:18:03.005Z,8.07
2018-01-19T18:20:30.606Z,8.30
2018-01-19T18:22:58.192Z,8.63
2018-01-19T18:25:25.931Z,8.57
2018-01-19T18:27:53.473Z,8.30
2018-01-19T18:30:21.020Z,8.47
2018-01-19T18:32:48.550Z,9.03
2018-01-19T18:35:16.175Z,9.30
2018-01-19T18:37:43.802Z,8.83
2018-01-19T18:40:11.336Z,9.37
2018-01-19T18:42:38.832Z,9.63
2018-01-19T18:45:06.584Z,8.97
2018-01-19T18:47:34.393Z,8.70
2018-01-19T18:50:02.221Z,9.13
2018-01-19T18:52:29.809Z,10.10
2018-01-19T18:54:57.400Z,8.37
2018-01-19T18:57:24.965Z,9.27
2018-01-19T18:59:52.557Z,9.53
2018-01-19T19:02:20.105Z,8.50
2018-01-19T19:04:47.645Z,9.10
2018-01-19T19:07:15.216Z,8.73
2018-01-19T19:09:42.709Z,9.23
2018-01-19T19:12:10.215Z,9.77
2018-01-19T19:14:38.990Z,9.40
2018-01-19T19:17:06.556Z,9.33
2018-01-19T19:19:34.131Z,8.67
2018-01-19T19:22:01.657Z,8.90
2018-01-19T19:24:29.164Z,8.83
2018-01-19T19:26:56.740Z,9.10
2018-01-19T19:29:24.303Z,9.20
2018-01-19T19:31:51.860Z,9.57
2018-01-19T19:34:19.446Z,9.13
2018-01-19T19:36:47.033Z,9.07
2018-01-19T19:39:14.512Z,9.97
2018-01-19T19:41:42.065Z,8.90
2018-01-19T19:44:09.622Z,9.37
2018-01-19T19:46:37.161Z,10.37
2018-01-19T19:49:04.662Z,9.47
2018-01-19T19:51:32.395Z,9.70
2018-01-19T19:53:59.923Z,10.07
2018-01-19T19:56:27.496Z,10.27
2018-01-19T19:58:54.968Z,10.63
2018-01-19T20:01:22.637Z,9.97
2018-01-19T20:03:50.120Z,10.13
2018-01-19T20:06:17.833Z,10.50
2018-01-19T20:08:45.443Z,9.40
2018-01-19T20:11:12.995Z,9.87
2018-01-19T20:13:40.613Z,10.13
2018-01-19T20:16:08.161Z,10.20
2018-01-19T20:18:35.708Z,10.40
2018-01-19T20:21:03.230Z,10.20
2018-01-19T20:23:30.746Z,10.03
2018-01-19T20:25:58.275Z,10.23
2018-01-19T20:28:26.079Z,9.67
2018-01-19T20:30:53.774Z,9.77
2018-01-19T20:33:21.375Z,10.10
2018-01-19T20:35:48.932Z,9.33
2018-01-19T20:38:16.563Z,10.40
2018-01-19T20:40:44.223Z,9.47
2018-01-19T20:43:11.766Z,10.27
2018-01-19T20:45:39.333Z,9.60
2018-01-19T20:48:07.043Z,9.53
2018-01-19T20:50:34.621Z,9.37
2018-01-19T20:53:02.201Z,9.67
2018-01-19T20:55:29.736Z,8.73
2018-01-19T20:57:57.251Z,8.73
2018-01-19T21:00:24.809Z,9.97
2018-01-19T21:02:52.373Z,10.40
2018-01-19T21:05:19.914Z,10.13
2018-01-19T21:07:47.582Z,10.27
2018-01-19T21:10:15.140Z,10.17
2018-01-19T21:12:42.728Z,9.93
2018-01-19T21:15:10.305Z,9.93
2018-01-19T21:17:37.947Z,9.60
2018-01-19T21:20:05.447Z,9.53
2018-01-19T21:22:33.082Z,10.23
2018-01-19T21:25:00.684Z,9.60
2018-01-19T21:27:28.303Z,9.73
2018-01-19T21:30:05.506Z,9.70
2018-01-19T21:32:33.074Z,10.27
2018-01-19T21:35:00.583Z,9.83
2018-01-19T21:37:28.271Z,9.77
2018-01-19T21:39:55.882Z,9.53
2018-01-19T21:42:23.535Z,9.27
2018-01-19T21:44:51.283Z,9.10
2018-01-19T21:47:18.865Z,8.93
2018-01-19T21:49:46.429Z,9.10
2018-01-19T21:52:13.980Z,9.47
2018-01-19T21:54:41.499Z,9.60
2018-01-19T21:57:08.995Z,9.30
2018-01-19T21:59:36.590Z,9.67
2018-01-19T22:02:04.169Z,9.57
2018-01-19T22:04:31.696Z,8.50
2018-01-19T22:06:59.276Z,9.27
2018-01-19T22:09:26.990Z,9.20
2018-01-19T22:11:54.524Z,9.00
2018-01-19T22:14:22.096Z,8.73
2018-01-19T22:16:49.666Z,8.27
2018-01-19T22:19:17.161Z,8.30
2018-01-19T22:21:44.785Z,8.30
2018-01-19T22:24:12.365Z,7.70
2018-01-19T22:26:39.930Z,7.37
2018-01-19T22:29:07.468Z,7.30
2018-01-19T22:31:34.974Z,6.93
2018-01-19T22:34:02.575Z,7.50
2018-01-19T22:36:30.072Z,6.97
2018-01-19T22:38:57.596Z,7.47
2018-01-19T22:41:25.101Z,6.43
2018-01-19T22:43:52.713Z,6.90
2018-01-19T22:46:20.220Z,7.17
2018-01-19T22:48:47.720Z,6.97
2018-01-19T22:51:15.217Z,6.83
2018-01-19T22:53:42.830Z,6.53
2018-01-19T22:56:10.350Z,6.87
2018-01-19T22:58:37.875Z,6.30
2018-01-19T23:01:05.355Z,6.87
2018-01-19T23:03:32.842Z,7.10
2018-01-19T23:06:00.330Z,7.10
2018-01-19T23:08:27.870Z,6.73
2018-01-19T23:10:55.389Z,6.87
2018-01-19T23:13:23.018Z,7.20
2018-01-19T23:15:50.538Z,7.17
2018-01-19T23:18:18.025Z,7.97
2018-01-19T23:20:45.536Z,7.10
2018-01-19T23:23:13.014Z,7.07
2018-01-19T23:25:40.608Z,7.57
2018-01-19T23:28:08.171Z,7.30
2018-01-19T23:30:35.718Z,7.57
2018-01-19T23:33:03.246Z,6.73
2018-01-19T23:35:30.740Z,6.97
2018-01-19T23:37:58.252Z,7.30
2018-01-19T23:40:25.778Z,7.57
2018-01-19T23:42:53.279Z,6.87
2018-01-19T23:45:20.786Z,7.00
2018-01-19T23:47:48.305Z,7.13
2018-01-19T23:50:15.817Z,7.80
2018-01-19T23:52:43.335Z,6.93
2018-01-19T23:55:10.844Z,7.00
2018-01-19T23:57:38.375Z,6.10
